sensor_id;sensor_type;location;lat;lon;timestamp;temperature;humidity
27072;DHT22;14613;46.308;25.288;2023-09-07T00:01:31;14.00;76.30
27072;DHT22;14613;46.308;25.288;2023-09-07T00:04:00;14.00;76.30
27072;DHT22;14613;46.308;25.288;2023-09-07T00:06:28;13.90;76.30
27072;DHT22;14613;46.308;25.288;2023-09-07T00:08:54;13.90;76.50
27072;DHT22;14613;46.308;25.288;2023-09-07T00:11:20;13.80;76.60
27072;DHT22;14613;46.308;25.288;2023-09-07T00:13:45;13.80;76.80
27072;DHT22;14613;46.308;25.288;2023-09-07T00:16:11;13.70;76.90
27072;DHT22;14613;46.308;25.288;2023-09-07T00:18:40;13.70;77.00
27072;DHT22;14613;46.308;25.288;2023-09-07T00:21:05;13.60;77.10
27072;DHT22;14613;46.308;25.288;2023-09-07T00:23:31;13.60;77.30
27072;DHT22;14613;46.308;25.288;2023-09-07T00:26:01;13.50;77.30
27072;DHT22;14613;46.308;25.288;2023-09-07T00:28:26;13.50;77.40
27072;DHT22;14613;46.308;25.288;2023-09-07T00:30:52;13.50;77.30
27072;DHT22;14613;46.308;25.288;2023-09-07T00:33:18;13.50;77.30
27072;DHT22;14613;46.308;25.288;2023-09-07T00:35:43;13.50;77.40
27072;DHT22;14613;46.308;25.288;2023-09-07T00:38:09;13.40;77.40
27072;DHT22;14613;46.308;25.288;2023-09-07T00:40:37;13.40;77.60
27072;DHT22;14613;46.308;25.288;2023-09-07T00:43:02;13.30;77.60
27072;DHT22;14613;46.308;25.288;2023-09-07T00:45:30;13.30;77.60
27072;DHT22;14613;46.308;25.288;2023-09-07T00:47:56;13.30;77.70
27072;DHT22;14613;46.308;25.288;2023-09-07T00:50:22;13.20;77.80
27072;DHT22;14613;46.308;25.288;2023-09-07T00:52:48;13.20;77.90
27072;DHT22;14613;46.308;25.288;2023-09-07T00:55:13;13.20;78.00
27072;DHT22;14613;46.308;25.288;2023-09-07T00:57:39;13.20;77.90
27072;DHT22;14613;46.308;25.288;2023-09-07T01:00:11;13.20;77.80
27072;DHT22;14613;46.308;25.288;2023-09-07T01:02:40;13.20;77.70
27072;DHT22;14613;46.308;25.288;2023-09-07T01:05:13;13.20;77.60
27072;DHT22;14613;46.308;25.288;2023-09-07T01:07:48;13.20;77.50
27072;DHT22;14613;46.308;25.288;2023-09-07T01:10:17;13.20;77.50
27072;DHT22;14613;46.308;25.288;2023-09-07T01:12:44;13.30;77.60
27072;DHT22;14613;46.308;25.288;2023-09-07T01:15:10;13.20;77.50
27072;DHT22;14613;46.308;25.288;2023-09-07T01:17:36;13.20;77.50
27072;DHT22;14613;46.308;25.288;2023-09-07T01:20:04;13.20;77.50
27072;DHT22;14613;46.308;25.288;2023-09-07T01:22:36;13.20;77.50
27072;DHT22;14613;46.308;25.288;2023-09-07T01:25:02;13.20;77.50
27072;DHT22;14613;46.308;25.288;2023-09-07T01:27:30;13.20;77.50
27072;DHT22;14613;46.308;25.288;2023-09-07T01:29:57;13.20;77.50
27072;DHT22;14613;46.308;25.288;2023-09-07T01:32:23;13.10;77.70
27072;DHT22;14613;46.308;25.288;2023-09-07T01:34:48;13.00;77.80
27072;DHT22;14613;46.308;25.288;2023-09-07T01:37:14;12.90;78.90
27072;DHT22;14613;46.308;25.288;2023-09-07T01:39:40;12.90;78.20
27072;DHT22;14613;46.308;25.288;2023-09-07T01:42:05;12.80;78.30
27072;DHT22;14613;46.308;25.288;2023-09-07T01:44:40;12.80;78.50
27072;DHT22;14613;46.308;25.288;2023-09-07T01:47:18;12.70;78.60
27072;DHT22;14613;46.308;25.288;2023-09-07T01:49:44;12.70;78.60
27072;DHT22;14613;46.308;25.288;2023-09-07T01:52:10;12.70;78.60
27072;DHT22;14613;46.308;25.288;2023-09-07T01:54:39;12.70;78.70
27072;DHT22;14613;46.308;25.288;2023-09-07T01:57:05;12.60;78.80
27072;DHT22;14613;46.308;25.288;2023-09-07T01:59:31;12.60;78.90
27072;DHT22;14613;46.308;25.288;2023-09-07T02:01:56;12.60;78.90
27072;DHT22;14613;46.308;25.288;2023-09-07T02:04:22;12.50;79.00
27072;DHT22;14613;46.308;25.288;2023-09-07T02:06:48;12.50;79.10
27072;DHT22;14613;46.308;25.288;2023-09-07T02:09:13;12.50;79.20
27072;DHT22;14613;46.308;25.288;2023-09-07T02:11:39;12.50;79.30
27072;DHT22;14613;46.308;25.288;2023-09-07T02:14:06;12.50;79.40
27072;DHT22;14613;46.308;25.288;2023-09-07T02:16:32;12.50;79.60
27072;DHT22;14613;46.308;25.288;2023-09-07T02:19:03;12.50;79.60
27072;DHT22;14613;46.308;25.288;2023-09-07T02:21:29;12.50;79.70
27072;DHT22;14613;46.308;25.288;2023-09-07T02:23:55;12.50;79.70
27072;DHT22;14613;46.308;25.288;2023-09-07T02:26:20;12.40;79.70
27072;DHT22;14613;46.308;25.288;2023-09-07T02:28:46;12.40;79.80
27072;DHT22;14613;46.308;25.288;2023-09-07T02:31:12;12.40;80.00
27072;DHT22;14613;46.308;25.288;2023-09-07T02:33:37;12.40;80.00
27072;DHT22;14613;46.308;25.288;2023-09-07T02:36:03;12.40;80.10
27072;DHT22;14613;46.308;25.288;2023-09-07T02:38:29;12.40;80.10
27072;DHT22;14613;46.308;25.288;2023-09-07T02:40:56;12.40;80.10
27072;DHT22;14613;46.308;25.288;2023-09-07T03:09:30;12.20;80.80
27072;DHT22;14613;46.308;25.288;2023-09-07T03:11:56;12.20;80.90
27072;DHT22;14613;46.308;25.288;2023-09-07T03:14:22;12.20;80.80
27072;DHT22;14613;46.308;25.288;2023-09-07T03:16:48;12.20;80.80
27072;DHT22;14613;46.308;25.288;2023-09-07T03:19:15;12.20;80.70
27072;DHT22;14613;46.308;25.288;2023-09-07T03:21:41;12.20;80.60
27072;DHT22;14613;46.308;25.288;2023-09-07T03:24:07;12.30;80.70
27072;DHT22;14613;46.308;25.288;2023-09-07T03:26:33;12.30;80.70
27072;DHT22;14613;46.308;25.288;2023-09-07T03:29:00;12.30;80.60
27072;DHT22;14613;46.308;25.288;2023-09-07T03:31:26;12.30;80.70
27072;DHT22;14613;46.308;25.288;2023-09-07T03:33:51;12.20;80.70
27072;DHT22;14613;46.308;25.288;2023-09-07T03:36:17;12.20;80.90
27072;DHT22;14613;46.308;25.288;2023-09-07T03:38:43;12.20;81.00
27072;DHT22;14613;46.308;25.288;2023-09-07T03:41:09;12.10;81.10
27072;DHT22;14613;46.308;25.288;2023-09-07T03:43:34;12.10;81.10
27072;DHT22;14613;46.308;25.288;2023-09-07T03:46:00;12.10;81.20
27072;DHT22;14613;46.308;25.288;2023-09-07T03:48:26;12.10;81.20
27072;DHT22;14613;46.308;25.288;2023-09-07T03:50:51;12.10;81.30
27072;DHT22;14613;46.308;25.288;2023-09-07T03:53:17;12.10;81.40
27072;DHT22;14613;46.308;25.288;2023-09-07T03:55:44;12.10;81.30
27072;DHT22;14613;46.308;25.288;2023-09-07T03:58:10;12.10;81.20
27072;DHT22;14613;46.308;25.288;2023-09-07T04:00:43;12.20;81.30
27072;DHT22;14613;46.308;25.288;2023-09-07T04:03:09;12.20;81.20
27072;DHT22;14613;46.308;25.288;2023-09-07T04:05:37;12.20;81.10
27072;DHT22;14613;46.308;25.288;2023-09-07T04:08:04;12.20;81.00
27072;DHT22;14613;46.308;25.288;2023-09-07T04:10:30;12.20;81.00
27072;DHT22;14613;46.308;25.288;2023-09-07T04:12:55;12.30;81.50
27072;DHT22;14613;46.308;25.288;2023-09-07T04:15:21;12.40;81.90
27072;DHT22;14613;46.308;25.288;2023-09-07T04:17:47;12.50;82.20
27072;DHT22;14613;46.308;25.288;2023-09-07T04:20:12;12.70;82.20
27072;DHT22;14613;46.308;25.288;2023-09-07T04:22:48;13.00;82.10
27072;DHT22;14613;46.308;25.288;2023-09-07T04:25:13;13.20;82.00
27072;DHT22;14613;46.308;25.288;2023-09-07T04:27:39;13.50;81.90
27072;DHT22;14613;46.308;25.288;2023-09-07T04:30:06;13.80;81.80
27072;DHT22;14613;46.308;25.288;2023-09-07T04:32:32;14.20;81.70
27072;DHT22;14613;46.308;25.288;2023-09-07T04:34:58;14.60;81.40
27072;DHT22;14613;46.308;25.288;2023-09-07T04:37:25;15.00;81.10
27072;DHT22;14613;46.308;25.288;2023-09-07T04:39:52;15.50;80.60
27072;DHT22;14613;46.308;25.288;2023-09-07T04:42:19;15.90;80.10
27072;DHT22;14613;46.308;25.288;2023-09-07T04:44:48;16.30;79.50
27072;DHT22;14613;46.308;25.288;2023-09-07T04:47:14;16.70;79.00
27072;DHT22;14613;46.308;25.288;2023-09-07T04:53:13;17.60;77.60
27072;DHT22;14613;46.308;25.288;2023-09-07T04:55:39;18.10;77.00
27072;DHT22;14613;46.308;25.288;2023-09-07T04:58:05;18.40;76.20
27072;DHT22;14613;46.308;25.288;2023-09-07T05:00:31;18.80;75.70
27072;DHT22;14613;46.308;25.288;2023-09-07T05:02:57;19.00;74.90
27072;DHT22;14613;46.308;25.288;2023-09-07T05:05:22;19.30;74.60
27072;DHT22;14613;46.308;25.288;2023-09-07T05:07:48;19.60;74.30
27072;DHT22;14613;46.308;25.288;2023-09-07T05:10:14;19.90;73.80
27072;DHT22;14613;46.308;25.288;2023-09-07T05:12:40;20.20;73.10
27072;DHT22;14613;46.308;25.288;2023-09-07T05:15:06;20.50;72.30
27072;DHT22;14613;46.308;25.288;2023-09-07T05:17:33;20.80;71.90
27072;DHT22;14613;46.308;25.288;2023-09-07T05:20:17;21.10;71.40
27072;DHT22;14613;46.308;25.288;2023-09-07T05:22:49;21.40;70.50
27072;DHT22;14613;46.308;25.288;2023-09-07T05:25:16;21.60;69.70
27072;DHT22;14613;46.308;25.288;2023-09-07T05:27:42;21.70;69.20
27072;DHT22;14613;46.308;25.288;2023-09-07T05:30:08;21.90;68.90
27072;DHT22;14613;46.308;25.288;2023-09-07T05:32:33;22.10;68.50
27072;DHT22;14613;46.308;25.288;2023-09-07T05:34:59;22.30;68.20
27072;DHT22;14613;46.308;25.288;2023-09-07T05:37:25;22.60;67.70
27072;DHT22;14613;46.308;25.288;2023-09-07T05:39:51;22.80;67.20
27072;DHT22;14613;46.308;25.288;2023-09-07T05:42:17;23.10;66.80
27072;DHT22;14613;46.308;25.288;2023-09-07T05:44:42;23.30;66.50
27072;DHT22;14613;46.308;25.288;2023-09-07T05:47:08;23.60;66.00
27072;DHT22;14613;46.308;25.288;2023-09-07T05:49:34;23.80;65.30
27072;DHT22;14613;46.308;25.288;2023-09-07T05:51:59;24.00;64.60
27072;DHT22;14613;46.308;25.288;2023-09-07T05:54:25;24.10;64.20
27072;DHT22;14613;46.308;25.288;2023-09-07T05:56:51;24.30;63.90
27072;DHT22;14613;46.308;25.288;2023-09-07T05:59:16;24.50;63.60
27072;DHT22;14613;46.308;25.288;2023-09-07T06:01:42;24.80;63.10
27072;DHT22;14613;46.308;25.288;2023-09-07T06:04:08;25.00;62.50
27072;DHT22;14613;46.308;25.288;2023-09-07T06:06:34;25.20;62.10
27072;DHT22;14613;46.308;25.288;2023-09-07T06:08:59;25.50;61.70
27072;DHT22;14613;46.308;25.288;2023-09-07T06:11:25;25.70;61.20
27072;DHT22;14613;46.308;25.288;2023-09-07T06:13:51;25.80;60.60
27072;DHT22;14613;46.308;25.288;2023-09-07T06:16:17;25.90;59.90
27072;DHT22;14613;46.308;25.288;2023-09-07T06:18:43;26.00;59.50
27072;DHT22;14613;46.308;25.288;2023-09-07T06:21:09;26.10;59.30
27072;DHT22;14613;46.308;25.288;2023-09-07T06:23:35;26.10;58.90
27072;DHT22;14613;46.308;25.288;2023-09-07T06:26:01;26.10;58.50
27072;DHT22;14613;46.308;25.288;2023-09-07T06:28:27;26.10;58.10
27072;DHT22;14613;46.308;25.288;2023-09-07T06:30:53;26.00;57.90
27072;DHT22;14613;46.308;25.288;2023-09-07T06:33:18;26.00;58.00
27072;DHT22;14613;46.308;25.288;2023-09-07T06:35:44;26.00;58.00
27072;DHT22;14613;46.308;25.288;2023-09-07T06:38:10;26.20;58.00
27072;DHT22;14613;46.308;25.288;2023-09-07T06:40:35;26.30;57.60
27072;DHT22;14613;46.308;25.288;2023-09-07T06:43:01;26.30;57.10
27072;DHT22;14613;46.308;25.288;2023-09-07T06:45:36;26.30;57.10
27072;DHT22;14613;46.308;25.288;2023-09-07T06:48:03;26.30;56.80
27072;DHT22;14613;46.308;25.288;2023-09-07T06:50:28;26.50;56.90
27072;DHT22;14613;46.308;25.288;2023-09-07T06:52:54;26.80;56.70
27072;DHT22;14613;46.308;25.288;2023-09-07T06:55:20;27.00;56.30
27072;DHT22;14613;46.308;25.288;2023-09-07T06:57:46;27.10;55.90
27072;DHT22;14613;46.308;25.288;2023-09-07T07:00:12;27.20;55.60
27072;DHT22;14613;46.308;25.288;2023-09-07T07:02:38;27.40;55.40
27072;DHT22;14613;46.308;25.288;2023-09-07T07:05:04;27.50;55.20
27072;DHT22;14613;46.308;25.288;2023-09-07T07:07:30;27.70;55.10
27072;DHT22;14613;46.308;25.288;2023-09-07T07:09:56;27.80;54.80
27072;DHT22;14613;46.308;25.288;2023-09-07T07:12:22;27.90;54.40
27072;DHT22;14613;46.308;25.288;2023-09-07T07:14:49;27.90;54.40
27072;DHT22;14613;46.308;25.288;2023-09-07T07:17:15;28.00;54.40
27072;DHT22;14613;46.308;25.288;2023-09-07T07:19:43;28.00;54.00
27072;DHT22;14613;46.308;25.288;2023-09-07T07:22:09;27.90;53.80
27072;DHT22;14613;46.308;25.288;2023-09-07T07:24:35;27.90;53.80
27072;DHT22;14613;46.308;25.288;2023-09-07T07:27:00;28.00;54.00
27072;DHT22;14613;46.308;25.288;2023-09-07T07:29:26;28.10;53.90
27072;DHT22;14613;46.308;25.288;2023-09-07T07:31:52;28.40;53.80
27072;DHT22;14613;46.308;25.288;2023-09-07T07:34:18;28.60;53.50
27072;DHT22;14613;46.308;25.288;2023-09-07T07:36:43;28.70;53.40
27072;DHT22;14613;46.308;25.288;2023-09-07T07:39:09;29.00;53.20
27072;DHT22;14613;46.308;25.288;2023-09-07T07:41:35;29.20;52.90
27072;DHT22;14613;46.308;25.288;2023-09-07T07:44:01;29.30;52.50
27072;DHT22;14613;46.308;25.288;2023-09-07T07:46:27;29.40;52.40
27072;DHT22;14613;46.308;25.288;2023-09-07T07:48:53;29.40;52.00
27072;DHT22;14613;46.308;25.288;2023-09-07T07:51:18;29.40;51.70
27072;DHT22;14613;46.308;25.288;2023-09-07T07:53:44;29.50;51.80
27072;DHT22;14613;46.308;25.288;2023-09-07T07:56:17;29.60;51.80
27072;DHT22;14613;46.308;25.288;2023-09-07T07:58:43;29.70;51.60
27072;DHT22;14613;46.308;25.288;2023-09-07T08:01:17;29.80;51.40
27072;DHT22;14613;46.308;25.288;2023-09-07T08:03:43;29.80;51.40
27072;DHT22;14613;46.308;25.288;2023-09-07T08:06:10;30.00;51.30
27072;DHT22;14613;46.308;25.288;2023-09-07T08:08:37;30.10;51.30
27072;DHT22;14613;46.308;25.288;2023-09-07T08:11:03;30.20;51.20
27072;DHT22;14613;46.308;25.288;2023-09-07T08:13:34;30.30;51.10
27072;DHT22;14613;46.308;25.288;2023-09-07T08:16:01;30.40;51.00
27072;DHT22;14613;46.308;25.288;2023-09-07T08:18:27;30.50;50.90
27072;DHT22;14613;46.308;25.288;2023-09-07T08:20:53;30.60;50.90
27072;DHT22;14613;46.308;25.288;2023-09-07T08:23:21;30.70;50.80
27072;DHT22;14613;46.308;25.288;2023-09-07T08:25:48;30.70;50.80
27072;DHT22;14613;46.308;25.288;2023-09-07T08:28:15;30.70;50.80
27072;DHT22;14613;46.308;25.288;2023-09-07T08:30:43;30.70;50.80
27072;DHT22;14613;46.308;25.288;2023-09-07T08:33:09;30.80;50.80
27072;DHT22;14613;46.308;25.288;2023-09-07T08:35:35;30.90;50.50
27072;DHT22;14613;46.308;25.288;2023-09-07T08:38:03;31.00;50.50
27072;DHT22;14613;46.308;25.288;2023-09-07T08:40:33;31.00;50.00
27072;DHT22;14613;46.308;25.288;2023-09-07T08:43:03;30.80;49.40
27072;DHT22;14613;46.308;25.288;2023-09-07T08:45:31;30.50;49.00
27072;DHT22;14613;46.308;25.288;2023-09-07T08:47:59;30.50;48.90
27072;DHT22;14613;46.308;25.288;2023-09-07T08:50:26;30.40;48.60
27072;DHT22;14613;46.308;25.288;2023-09-07T08:52:53;30.40;48.70
27072;DHT22;14613;46.308;25.288;2023-09-07T08:55:20;30.40;48.70
27072;DHT22;14613;46.308;25.288;2023-09-07T08:57:46;30.20;47.70
27072;DHT22;14613;46.308;25.288;2023-09-07T09:00:13;30.00;47.60
27072;DHT22;14613;46.308;25.288;2023-09-07T09:02:42;29.80;47.40
27072;DHT22;14613;46.308;25.288;2023-09-07T09:05:12;29.60;47.30
27072;DHT22;14613;46.308;25.288;2023-09-07T09:07:40;29.50;47.10
27072;DHT22;14613;46.308;25.288;2023-09-07T09:10:07;29.30;47.10
27072;DHT22;14613;46.308;25.288;2023-09-07T09:12:33;29.20;47.60
27072;DHT22;14613;46.308;25.288;2023-09-07T09:15:00;29.10;47.10
27072;DHT22;14613;46.308;25.288;2023-09-07T09:17:29;29.20;47.40
27072;DHT22;14613;46.308;25.288;2023-09-07T09:19:55;29.40;47.50
27072;DHT22;14613;46.308;25.288;2023-09-07T09:22:21;29.60;47.60
27072;DHT22;14613;46.308;25.288;2023-09-07T09:24:49;29.70;47.30
27072;DHT22;14613;46.308;25.288;2023-09-07T09:27:16;29.80;47.30
27072;DHT22;14613;46.308;25.288;2023-09-07T09:29:42;30.10;47.60
27072;DHT22;14613;46.308;25.288;2023-09-07T09:32:08;30.30;47.50
27072;DHT22;14613;46.308;25.288;2023-09-07T09:34:34;30.40;47.30
27072;DHT22;14613;46.308;25.288;2023-09-07T09:37:02;30.60;47.20
27072;DHT22;14613;46.308;25.288;2023-09-07T09:39:29;30.60;46.90
27072;DHT22;14613;46.308;25.288;2023-09-07T09:41:56;30.50;46.90
27072;DHT22;14613;46.308;25.288;2023-09-07T09:44:23;30.50;47.10
27072;DHT22;14613;46.308;25.288;2023-09-07T09:46:52;30.70;47.20
27072;DHT22;14613;46.308;25.288;2023-09-07T09:49:21;30.80;47.10
27072;DHT22;14613;46.308;25.288;2023-09-07T09:51:50;31.00;46.80
27072;DHT22;14613;46.308;25.288;2023-09-07T09:54:17;31.00;46.70
27072;DHT22;14613;46.308;25.288;2023-09-07T09:56:44;31.00;46.90
27072;DHT22;14613;46.308;25.288;2023-09-07T09:59:11;31.00;46.70
27072;DHT22;14613;46.308;25.288;2023-09-07T10:01:43;31.10;46.30
27072;DHT22;14613;46.308;25.288;2023-09-07T10:04:11;31.00;46.10
27072;DHT22;14613;46.308;25.288;2023-09-07T10:06:38;31.00;46.10
27072;DHT22;14613;46.308;25.288;2023-09-07T10:09:05;31.00;46.30
27072;DHT22;14613;46.308;25.288;2023-09-07T10:11:39;31.10;46.30
27072;DHT22;14613;46.308;25.288;2023-09-07T10:14:06;31.10;45.90
27072;DHT22;14613;46.308;25.288;2023-09-07T10:19:22;30.60;45.90
27072;DHT22;14613;46.308;25.288;2023-09-07T10:22:20;30.40;45.20
27072;DHT22;14613;46.308;25.288;2023-09-07T10:25:21;30.30;45.20
27072;DHT22;14613;46.308;25.288;2023-09-07T10:27:48;30.30;45.30
27072;DHT22;14613;46.308;25.288;2023-09-07T10:30:14;30.40;45.70
27072;DHT22;14613;46.308;25.288;2023-09-07T10:32:44;30.50;45.70
27072;DHT22;14613;46.308;25.288;2023-09-07T10:35:18;30.60;45.40
27072;DHT22;14613;46.308;25.288;2023-09-07T10:37:45;30.50;44.80
27072;DHT22;14613;46.308;25.288;2023-09-07T10:40:21;30.20;44.80
27072;DHT22;14613;46.308;25.288;2023-09-07T10:42:47;29.90;45.10
27072;DHT22;14613;46.308;25.288;2023-09-07T10:45:15;29.90;45.60
27072;DHT22;14613;46.308;25.288;2023-09-07T10:47:45;30.10;45.80
27072;DHT22;14613;46.308;25.288;2023-09-07T10:50:14;30.40;45.90
27072;DHT22;14613;46.308;25.288;2023-09-07T10:52:42;30.50;45.20
27072;DHT22;14613;46.308;25.288;2023-09-07T10:55:11;30.40;44.80
27072;DHT22;14613;46.308;25.288;2023-09-07T10:57:44;30.30;44.80
27072;DHT22;14613;46.308;25.288;2023-09-07T11:00:11;30.40;45.10
27072;DHT22;14613;46.308;25.288;2023-09-07T11:02:38;30.40;45.30
27072;DHT22;14613;46.308;25.288;2023-09-07T11:05:04;30.60;45.40
27072;DHT22;14613;46.308;25.288;2023-09-07T11:07:30;30.70;45.50
27072;DHT22;14613;46.308;25.288;2023-09-07T11:09:56;30.90;45.60
27072;DHT22;14613;46.308;25.288;2023-09-07T11:12:22;31.00;45.50
27072;DHT22;14613;46.308;25.288;2023-09-07T11:14:48;31.20;45.60
27072;DHT22;14613;46.308;25.288;2023-09-07T11:17:14;31.30;45.50
27072;DHT22;14613;46.308;25.288;2023-09-07T11:19:41;31.30;45.20
27072;DHT22;14613;46.308;25.288;2023-09-07T11:22:09;31.30;45.30
27072;DHT22;14613;46.308;25.288;2023-09-07T11:24:35;31.40;45.40
27072;DHT22;14613;46.308;25.288;2023-09-07T11:27:01;31.40;45.30
27072;DHT22;14613;46.308;25.288;2023-09-07T11:29:31;31.40;45.40
27072;DHT22;14613;46.308;25.288;2023-09-07T11:32:12;31.50;45.40
27072;DHT22;14613;46.308;25.288;2023-09-07T11:34:48;31.60;45.40
27072;DHT22;14613;46.308;25.288;2023-09-07T11:37:22;31.60;45.30
27072;DHT22;14613;46.308;25.288;2023-09-07T11:39:48;31.60;45.00
27072;DHT22;14613;46.308;25.288;2023-09-07T11:42:14;31.60;45.00
27072;DHT22;14613;46.308;25.288;2023-09-07T11:44:40;31.50;44.90
27072;DHT22;14613;46.308;25.288;2023-09-07T11:47:06;31.30;44.80
27072;DHT22;14613;46.308;25.288;2023-09-07T11:49:32;31.30;45.10
27072;DHT22;14613;46.308;25.288;2023-09-07T11:51:58;31.10;44.90
27072;DHT22;14613;46.308;25.288;2023-09-07T11:54:24;31.00;44.70
27072;DHT22;14613;46.308;25.288;2023-09-07T11:56:50;30.80;44.60
27072;DHT22;14613;46.308;25.288;2023-09-07T11:59:16;30.70;44.50
27072;DHT22;14613;46.308;25.288;2023-09-07T12:01:44;30.60;44.50
27072;DHT22;14613;46.308;25.288;2023-09-07T12:04:10;30.50;44.60
27072;DHT22;14613;46.308;25.288;2023-09-07T12:06:36;30.40;44.70
27072;DHT22;14613;46.308;25.288;2023-09-07T12:09:06;30.40;44.90
27072;DHT22;14613;46.308;25.288;2023-09-07T12:11:33;30.50;45.00
27072;DHT22;14613;46.308;25.288;2023-09-07T12:13:59;30.40;44.80
27072;DHT22;14613;46.308;25.288;2023-09-07T12:16:28;30.20;44.60
27072;DHT22;14613;46.308;25.288;2023-09-07T12:18:54;30.20;44.70
27072;DHT22;14613;46.308;25.288;2023-09-07T12:21:20;30.30;44.80
27072;DHT22;14613;46.308;25.288;2023-09-07T12:23:46;30.40;44.90
27072;DHT22;14613;46.308;25.288;2023-09-07T12:26:13;30.40;44.70
27072;DHT22;14613;46.308;25.288;2023-09-07T12:28:40;30.40;44.50
27072;DHT22;14613;46.308;25.288;2023-09-07T12:31:05;30.50;44.70
27072;DHT22;14613;46.308;25.288;2023-09-07T12:33:31;30.60;44.60
27072;DHT22;14613;46.308;25.288;2023-09-07T12:35:58;30.70;44.70
27072;DHT22;14613;46.308;25.288;2023-09-07T12:38:25;30.80;44.80
27072;DHT22;14613;46.308;25.288;2023-09-07T12:40:54;30.80;44.60
27072;DHT22;14613;46.308;25.288;2023-09-07T12:43:19;30.90;44.70
27072;DHT22;14613;46.308;25.288;2023-09-07T12:45:46;30.90;44.40
27072;DHT22;14613;46.308;25.288;2023-09-07T12:48:11;30.90;44.30
27072;DHT22;14613;46.308;25.288;2023-09-07T12:50:37;30.80;44.40
27072;DHT22;14613;46.308;25.288;2023-09-07T12:53:04;30.80;44.60
27072;DHT22;14613;46.308;25.288;2023-09-07T12:55:30;30.90;44.80
27072;DHT22;14613;46.308;25.288;2023-09-07T12:57:56;30.80;44.70
27072;DHT22;14613;46.308;25.288;2023-09-07T13:00:22;30.90;44.80
27072;DHT22;14613;46.308;25.288;2023-09-07T13:02:47;30.90;44.80
27072;DHT22;14613;46.308;25.288;2023-09-07T13:05:13;31.00;44.80
27072;DHT22;14613;46.308;25.288;2023-09-07T13:07:39;31.00;44.90
27072;DHT22;14613;46.308;25.288;2023-09-07T13:10:06;31.10;45.00
27072;DHT22;14613;46.308;25.288;2023-09-07T13:12:32;31.10;45.10
27072;DHT22;14613;46.308;25.288;2023-09-07T13:14:58;31.00;45.00
27072;DHT22;14613;46.308;25.288;2023-09-07T13:17:24;31.10;45.20
27072;DHT22;14613;46.308;25.288;2023-09-07T13:19:50;31.10;45.20
27072;DHT22;14613;46.308;25.288;2023-09-07T13:22:16;31.10;45.20
27072;DHT22;14613;46.308;25.288;2023-09-07T13:24:42;31.20;45.30
27072;DHT22;14613;46.308;25.288;2023-09-07T13:27:07;31.20;45.20
27072;DHT22;14613;46.308;25.288;2023-09-07T13:29:36;31.30;45.40
27072;DHT22;14613;46.308;25.288;2023-09-07T13:32:02;31.30;45.30
27072;DHT22;14613;46.308;25.288;2023-09-07T13:34:28;31.30;45.30
27072;DHT22;14613;46.308;25.288;2023-09-07T13:36:54;31.40;45.20
27072;DHT22;14613;46.308;25.288;2023-09-07T13:39:21;31.40;45.20
27072;DHT22;14613;46.308;25.288;2023-09-07T13:41:46;31.40;45.20
27072;DHT22;14613;46.308;25.288;2023-09-07T13:44:14;31.40;45.20
27072;DHT22;14613;46.308;25.288;2023-09-07T13:46:40;31.30;45.10
27072;DHT22;14613;46.308;25.288;2023-09-07T13:49:06;31.30;45.10
27072;DHT22;14613;46.308;25.288;2023-09-07T13:51:31;31.40;45.00
27072;DHT22;14613;46.308;25.288;2023-09-07T13:54:08;31.20;44.60
27072;DHT22;14613;46.308;25.288;2023-09-07T13:56:34;30.90;44.30
27072;DHT22;14613;46.308;25.288;2023-09-07T13:59:01;30.70;44.50
27072;DHT22;14613;46.308;25.288;2023-09-07T14:01:27;30.50;44.30
27072;DHT22;14613;46.308;25.288;2023-09-07T14:03:53;30.40;44.50
27072;DHT22;14613;46.308;25.288;2023-09-07T14:06:19;30.30;44.40
27072;DHT22;14613;46.308;25.288;2023-09-07T14:08:48;30.10;44.40
27072;DHT22;14613;46.308;25.288;2023-09-07T14:11:14;30.00;44.50
27072;DHT22;14613;46.308;25.288;2023-09-07T14:13:40;30.00;44.70
27072;DHT22;14613;46.308;25.288;2023-09-07T14:16:05;30.10;44.90
27072;DHT22;14613;46.308;25.288;2023-09-07T14:18:31;30.20;44.90
27072;DHT22;14613;46.308;25.288;2023-09-07T14:20:57;30.20;44.80
27072;DHT22;14613;46.308;25.288;2023-09-07T14:23:24;30.20;44.60
27072;DHT22;14613;46.308;25.288;2023-09-07T14:25:54;30.20;44.80
27072;DHT22;14613;46.308;25.288;2023-09-07T14:28:20;30.20;44.80
27072;DHT22;14613;46.308;25.288;2023-09-07T14:30:46;30.20;44.90
27072;DHT22;14613;46.308;25.288;2023-09-07T14:33:12;30.30;44.80
27072;DHT22;14613;46.308;25.288;2023-09-07T14:35:38;30.20;44.70
27072;DHT22;14613;46.308;25.288;2023-09-07T14:38:05;30.20;44.80
27072;DHT22;14613;46.308;25.288;2023-09-07T14:40:30;30.10;44.80
27072;DHT22;14613;46.308;25.288;2023-09-07T14:42:57;29.90;44.80
27072;DHT22;14613;46.308;25.288;2023-09-07T14:45:24;29.80;45.60
27072;DHT22;14613;46.308;25.288;2023-09-07T14:47:51;29.60;45.00
27072;DHT22;14613;46.308;25.288;2023-09-07T14:50:17;29.50;45.10
27072;DHT22;14613;46.308;25.288;2023-09-07T14:52:43;29.30;45.20
27072;DHT22;14613;46.308;25.288;2023-09-07T14:55:13;29.00;44.80
27072;DHT22;14613;46.308;25.288;2023-09-07T14:58:21;28.70;44.60
27072;DHT22;14613;46.308;25.288;2023-09-07T15:00:49;28.30;44.90
27072;DHT22;14613;46.308;25.288;2023-09-07T15:03:14;28.00;45.50
27072;DHT22;14613;46.308;25.288;2023-09-07T15:05:40;27.70;46.10
27072;DHT22;14613;46.308;25.288;2023-09-07T15:08:06;27.40;46.60
27072;DHT22;14613;46.308;25.288;2023-09-07T15:10:33;27.20;47.10
27072;DHT22;14613;46.308;25.288;2023-09-07T15:13:00;27.20;47.40
27072;DHT22;14613;46.308;25.288;2023-09-07T15:15:28;27.10;47.70
27072;DHT22;14613;46.308;25.288;2023-09-07T15:17:54;27.00;48.00
27072;DHT22;14613;46.308;25.288;2023-09-07T15:20:20;26.80;48.30
27072;DHT22;14613;46.308;25.288;2023-09-07T15:22:46;26.70;48.50
27072;DHT22;14613;46.308;25.288;2023-09-07T15:25:11;26.60;48.90
27072;DHT22;14613;46.308;25.288;2023-09-07T15:27:37;26.40;49.10
27072;DHT22;14613;46.308;25.288;2023-09-07T15:30:03;26.30;49.40
27072;DHT22;14613;46.308;25.288;2023-09-07T15:32:30;26.20;49.70
27072;DHT22;14613;46.308;25.288;2023-09-07T15:34:55;26.10;49.90
27072;DHT22;14613;46.308;25.288;2023-09-07T15:37:21;26.00;50.00
27072;DHT22;14613;46.308;25.288;2023-09-07T15:39:47;26.00;50.20
27072;DHT22;14613;46.308;25.288;2023-09-07T15:42:13;26.00;50.30
27072;DHT22;14613;46.308;25.288;2023-09-07T15:44:59;26.00;50.30
27072;DHT22;14613;46.308;25.288;2023-09-07T15:47:25;25.90;51.20